»·PEaware :: SKW5430 KASE-KDEN

SKW5430 :: KASE-KDEN

FLIGHT INFORMATION

Flight Status: Arrived
Operator:
SkyWest Airlines
More flights by this operator :: More flights under this callsign
Pilot: Drew L. (13237)
Aircraft: CANADAIR CL-600 CRJ-700
(CRJ7)
More flights by this aircraft type
Origin: KASE Aspen-Pitkin Co/Sardy
United States
Destination: KDEN Denver Intl
United States
More flights between these airports :: More routes between these airports
Route: +LINDZ8 DBL JNETT CREDE3
File this flight plan on PilotEdge
Remarks: PBN / D1 DOF / 180401 REG / N921SB OPR / SKW PER / C RMK / TCAS SIMBRIEF
Altitude:
(Current/Filed)
25,000ft
Speed:
(Current/Filed)
467kts
Departed: 31-Mar-18 09:30 PM
Arrived: 31-Mar-18 09:58 PM
Distance/Time
Traveled:
108nm/0:28
Distance/Time
To Go:
Arrived

Flight Plot

Page will automatically refresh every two minutes.


Map Options




Map Legend


Flown Route
Filed Route
Departure Airport
Arrival Airport
Navaid (VOR, NDB)
Fix

Horizontal Profiles

Position Reports

Time Latitude Longitude Heading Altitude Ground
Speed
31-Mar-18 20:57 39.219410 -106.865055 119 7743ft 0kts
31-Mar-18 20:58 39.219410 -106.865055 119 7743ft 0kts
31-Mar-18 20:59 39.219410 -106.865055 119 7743ft 0kts
31-Mar-18 21:00 39.219410 -106.865055 119 7743ft 0kts
31-Mar-18 21:01 39.219410 -106.865055 119 7743ft 0kts
31-Mar-18 21:02 39.219410 -106.865055 119 7743ft 0kts
31-Mar-18 21:03 39.219410 -106.865055 119 7743ft 0kts
31-Mar-18 21:04 39.219410 -106.865055 119 7743ft 0kts
31-Mar-18 21:05 39.219410 -106.865055 119 7743ft 0kts
31-Mar-18 21:06 39.219410 -106.865055 119 7743ft 0kts
31-Mar-18 21:07 39.219410 -106.865055 119 7743ft 0kts
31-Mar-18 21:08 39.219410 -106.865055 119 7743ft 0kts
31-Mar-18 21:09 39.219410 -106.865055 119 7743ft 0kts
31-Mar-18 21:10 39.219410 -106.865055 119 7743ft 0kts
31-Mar-18 21:11 39.219410 -106.865055 119 7743ft 0kts
31-Mar-18 21:12 39.219410 -106.865055 119 7743ft 0kts
31-Mar-18 21:13 39.219410 -106.865055 119 7743ft 0kts
31-Mar-18 21:14 39.219410 -106.865055 119 7743ft 0kts
31-Mar-18 21:15 39.219410 -106.865055 119 7743ft 0kts
31-Mar-18 21:16 39.219410 -106.865055 119 7743ft 0kts
31-Mar-18 21:17 39.219409 -106.865054 119 7743ft 0kts
31-Mar-18 21:18 39.219408 -106.865051 119 7743ft 0kts
31-Mar-18 21:19 39.219407 -106.865049 119 7743ft 0kts
31-Mar-18 21:20 39.219406 -106.865046 119 7743ft 0kts
31-Mar-18 21:21 39.219405 -106.865044 119 7743ft 0kts
31-Mar-18 21:22 39.219399 -106.865032 123 7743ft 0kts
31-Mar-18 21:23 39.218995 -106.865087 207 7743ft 0kts
31-Mar-18 21:24 39.218474 -106.865248 178 7743ft 7kts
31-Mar-18 21:25 39.215756 -106.864191 159 7743ft 7kts
31-Mar-18 21:26 39.212324 -106.862570 169 7743ft 0kts
31-Mar-18 21:27 39.212322 -106.862569 169 7743ft 0kts
31-Mar-18 21:28 39.212141 -106.863666 342 7743ft 9kts
31-Mar-18 21:29 39.214213 -106.864635 338 7743ft 51kts
31-Mar-18 21:30 39.253788 -106.880654 350 8922ft 205kts
31-Mar-18 21:31 39.304984 -106.926155 299 11336ft 267kts
31-Mar-18 21:32 39.342503 -107.002667 296 13631ft 256kts
31-Mar-18 21:33 39.392795 -107.071218 343 15945ft 304kts
31-Mar-18 21:34 39.457510 -107.002027 81 18243ft 353kts
31-Mar-18 21:35 39.439454 -106.880627 109 20503ft 345kts
31-Mar-18 21:36 39.408223 -106.751566 106 21986ft 409kts
31-Mar-18 21:37 39.378159 -106.600719 106 23128ft 440kts
31-Mar-18 21:38 39.344331 -106.449165 110 23199ft 439kts
31-Mar-18 21:39 39.297864 -106.299144 113 23210ft 464kts
31-Mar-18 21:40 39.253479 -106.138562 99 23205ft 471kts
31-Mar-18 21:41 39.269735 -105.973023 71 23240ft 465kts
31-Mar-18 21:42 39.294484 -105.805164 78 21851ft 459kts
31-Mar-18 21:43 39.318637 -105.650222 66 20269ft 422kts
31-Mar-18 21:44 39.378151 -105.524743 53 18263ft 406kts
31-Mar-18 21:45 39.447900 -105.418010 31 16474ft 384kts
31-Mar-18 21:46 39.534595 -105.338355 29 14870ft 382kts
31-Mar-18 21:47 39.624401 -105.260423 29 13988ft 387kts
31-Mar-18 21:48 39.709135 -105.187816 29 12297ft 343kts
31-Mar-18 21:49 39.776209 -105.107715 48 10498ft 312kts
31-Mar-18 21:50 39.828536 -105.029634 49 8675ft 259kts
31-Mar-18 21:51 39.854743 -104.959994 95 6899ft 199kts
31-Mar-18 21:52 39.847194 -104.894296 98 6599ft 184kts
31-Mar-18 21:53 39.841639 -104.836231 90 6081ft 151kts
31-Mar-18 21:54 39.841243 -104.786498 87 5856ft 128kts
31-Mar-18 21:55 39.840958 -104.739105 88 5678ft 129kts
31-Mar-18 21:56 39.840782 -104.700184 90 5438ft 65kts
31-Mar-18 21:57 39.841732 -104.689275 0 5438ft 6kts
31-Mar-18 21:58 39.842339 -104.688510 84 5438ft 11kts
31-Mar-18 21:59 39.845598 -104.684115 0 5438ft 35kts
31-Mar-18 22:00 39.852457 -104.680967 91 5438ft 29kts
31-Mar-18 22:01 39.853352 -104.677139 10 5438ft 3kts
31-Mar-18 22:02 39.853366 -104.677136 10 5438ft 0kts
31-Mar-18 22:03 39.853366 -104.677136 10 5438ft 0kts

Navigation Log

Ident Type
1. KASE Airport
2. LINDZ Fix
3. DBL Navaid
4. JNETT Fix
5. KDEN Airport